Detall de PIREP

Printer-friendly versionPDF version

[2014/07/18 17:12:00]
Flight IATA:CT3108
Pilot Number:012
Company ICAO:CAT
Aircraft Type:MD11/E
PAX:243
Aircraft Registration:PAX
Departing Airport: LIEA
Destination Airport: LEZG
Alternate Airport:LEMD
Online: VATSIM
Route:GINOX UM601 BCN UN725 LOBAR
Flight Level:F310
No Slew and time accel
No pause
Crash detect
Detect pilot in Cockpit between each 30 and 45 minutes
17:12 Zero fuel Weight: 361766 Lbs, Fuel Weight: 54440 Lbs
17:12 VATSIM:LIEA 181650Z 04011KT CAVOK 30/14 Q1017
17:12 VATSIM:LEZG 181700Z 10018KT 070V140 9999 FEW070CB 34/13 Q1007
17:13 Parking Brakes off
17:18 Take-off
17:18 Take off Weight: 415130 Lbs
17:18 Wind: 038º @ 011 Knots Heading: 024º
17:18 POS N40º 38´ 01´´ E008º 17´ 31´´
17:18 Gear Up: 185 Knots
17:18 Flaps:3 at 185 Knots
17:22 Flaps:2 at 201 Knots
17:22 Flaps:3 at 201 Knots
17:22 Flaps:2 at 201 Knots
17:22 Flaps:1 at 200 Knots
17:22 Flaps:0 at 202 Knots
17:30 TOC
17:30 Fuel Weight: 44844 Lb
17:33 Wind:302º@034 Knots Heading: 274º Ground Speed: 468 Knots Altitude 31095 ft
17:48 Wind:259º@041 Knots Heading: 276º Ground Speed: 454 Knots Altitude 31062 ft
18:03 Wind:238º@043 Knots Heading: 284º Ground Speed: 467 Knots Altitude 31033 ft
18:09 TOD
18:09 Fuel Weight: 34613 Lb
18:18 Wind:205º@048 Knots Heading: 271º Ground Speed: 367 Knots Altitude 15961 ft
18:21 Flaps:1 at 257 Knots
18:22 Flaps:2 at 223 Knots
18:22 Flaps:3 at 224 Knots
18:25 Gear Down: 241 Knots
18:26 Flaps:4 at 194 Knots
18:26 Flaps:3 at 190 Knots
18:26 Flaps:4 at 188 Knots
18:26 Flaps:5 at 184 Knots
18:26 Flaps:4 at 184 Knots
18:26 Flaps:5 at 183 Knots
18:26 Flaps:6 at 182 Knots
18:26 Flaps:7 at 180 Knots
18:31 TouchDown:Rate -319 ft/min Speed: 157 Knots
18:31 VATSIM:LEZG 181800Z 11021KT 080V140 9999 VCTS FEW070CB 32/12 Q1007
18:31 Land
18:31 Wind:122º@019 Knots
18:31 Heading: 118º
18:31 Flight Duration: 01:13
18:31 Landing Weight: 392346 Lbs
18:31 POS N41º 40´ 22´´ W001º 03´ 56´´
18:37 Parking brakes on
18:37 Block to Block Duration: 01:24
18:37 Final Fuel: 29973 Lbls
18:37 Spent Fuel: 24466 Lbls
18:37 Flight Length: 481 NM
18:37 TOD Land Length: 112 NM

Exportar CSV

Powered by Drupal - Modified by Danger4k